sensor_id;sensor_type;location;lat;lon;timestamp;temperature;humidity
12233;DHT22;6179;51.748;8.728;2022-08-01T00:04:12;20.60;98.30
12233;DHT22;6179;51.748;8.728;2022-08-01T00:10:15;20.20;98.30
12233;DHT22;6179;51.748;8.728;2022-08-01T00:16:15;20.30;98.30
12233;DHT22;6179;51.748;8.728;2022-08-01T00:22:17;20.40;98.30
12233;DHT22;6179;51.748;8.728;2022-08-01T00:28:17;20.50;98.30
12233;DHT22;6179;51.748;8.728;2022-08-01T00:34:18;20.40;98.30
12233;DHT22;6179;51.748;8.728;2022-08-01T00:40:19;20.50;98.30
12233;DHT22;6179;51.748;8.728;2022-08-01T00:46:19;20.30;98.30
12233;DHT22;6179;51.748;8.728;2022-08-01T00:52:20;20.30;98.30
12233;DHT22;6179;51.748;8.728;2022-08-01T00:58:21;20.40;98.30
12233;DHT22;6179;51.748;8.728;2022-08-01T01:04:22;20.40;98.30
12233;DHT22;6179;51.748;8.728;2022-08-01T01:10:28;20.50;98.30
12233;DHT22;6179;51.748;8.728;2022-08-01T01:16:32;20.60;98.30
12233;DHT22;6179;51.748;8.728;2022-08-01T01:29:03;20.40;98.30
12233;DHT22;6179;51.748;8.728;2022-08-01T01:35:09;20.30;98.30
12233;DHT22;6179;51.748;8.728;2022-08-01T01:41:11;20.50;98.30
12233;DHT22;6179;51.748;8.728;2022-08-01T01:47:13;20.40;98.30
12233;DHT22;6179;51.748;8.728;2022-08-01T01:53:18;20.10;98.30
12233;DHT22;6179;51.748;8.728;2022-08-01T01:59:20;19.70;98.30
12233;DHT22;6179;51.748;8.728;2022-08-01T02:05:24;19.70;98.30
12233;DHT22;6179;51.748;8.728;2022-08-01T02:11:26;19.70;98.30
12233;DHT22;6179;51.748;8.728;2022-08-01T02:17:27;19.90;98.30
12233;DHT22;6179;51.748;8.728;2022-08-01T02:23:32;19.90;98.30
12233;DHT22;6179;51.748;8.728;2022-08-01T02:29:39;19.70;98.30
12233;DHT22;6179;51.748;8.728;2022-08-01T02:35:43;19.50;98.30
12233;DHT22;6179;51.748;8.728;2022-08-01T02:41:48;19.50;98.30
12233;DHT22;6179;51.748;8.728;2022-08-01T02:47:53;19.60;98.30
12233;DHT22;6179;51.748;8.728;2022-08-01T02:53:56;19.60;98.30
12233;DHT22;6179;51.748;8.728;2022-08-01T02:59:59;19.70;98.30
12233;DHT22;6179;51.748;8.728;2022-08-01T03:06:02;19.80;98.30
12233;DHT22;6179;51.748;8.728;2022-08-01T03:12:06;19.80;98.30
12233;DHT22;6179;51.748;8.728;2022-08-01T03:18:09;19.60;98.30
12233;DHT22;6179;51.748;8.728;2022-08-01T03:24:11;19.70;98.30
12233;DHT22;6179;51.748;8.728;2022-08-01T03:30:13;19.40;98.30
12233;DHT22;6179;51.748;8.728;2022-08-01T03:36:16;19.20;98.30
12233;DHT22;6179;51.748;8.728;2022-08-01T03:42:20;19.40;98.30
12233;DHT22;6179;51.748;8.728;2022-08-01T03:48:27;19.70;98.30
12233;DHT22;6179;51.748;8.728;2022-08-01T03:54:31;19.60;98.30
12233;DHT22;6179;51.748;8.728;2022-08-01T04:00:38;19.50;98.30
12233;DHT22;6179;51.748;8.728;2022-08-01T04:06:40;19.70;98.30
12233;DHT22;6179;51.748;8.728;2022-08-01T04:12:41;19.50;98.30
12233;DHT22;6179;51.748;8.728;2022-08-01T04:18:42;19.40;98.30
12233;DHT22;6179;51.748;8.728;2022-08-01T04:24:46;19.30;98.30
12233;DHT22;6179;51.748;8.728;2022-08-01T04:30:52;19.40;98.30
12233;DHT22;6179;51.748;8.728;2022-08-01T04:36:55;19.40;98.30
12233;DHT22;6179;51.748;8.728;2022-08-01T04:42:56;19.50;98.30
12233;DHT22;6179;51.748;8.728;2022-08-01T04:48:57;19.80;98.30
12233;DHT22;6179;51.748;8.728;2022-08-01T04:54:58;19.80;98.30
12233;DHT22;6179;51.748;8.728;2022-08-01T05:00:59;19.70;98.30
12233;DHT22;6179;51.748;8.728;2022-08-01T05:07:00;19.80;98.30
12233;DHT22;6179;51.748;8.728;2022-08-01T05:13:01;19.90;98.30
12233;DHT22;6179;51.748;8.728;2022-08-01T05:19:02;20.00;98.30
12233;DHT22;6179;51.748;8.728;2022-08-01T05:25:04;20.10;98.30
12233;DHT22;6179;51.748;8.728;2022-08-01T05:31:08;20.00;98.30
12233;DHT22;6179;51.748;8.728;2022-08-01T05:37:09;19.90;98.30
12233;DHT22;6179;51.748;8.728;2022-08-01T05:43:10;20.10;98.30
12233;DHT22;6179;51.748;8.728;2022-08-01T05:49:10;20.10;98.30
12233;DHT22;6179;51.748;8.728;2022-08-01T05:55:11;20.10;98.30
12233;DHT22;6179;51.748;8.728;2022-08-01T06:01:11;20.00;98.30
12233;DHT22;6179;51.748;8.728;2022-08-01T06:07:12;20.10;98.30
12233;DHT22;6179;51.748;8.728;2022-08-01T06:13:13;20.30;98.30
12233;DHT22;6179;51.748;8.728;2022-08-01T06:19:13;20.20;98.30
12233;DHT22;6179;51.748;8.728;2022-08-01T06:25:14;20.20;98.30
12233;DHT22;6179;51.748;8.728;2022-08-01T06:31:15;20.20;98.30
12233;DHT22;6179;51.748;8.728;2022-08-01T06:37:16;20.40;98.30
12233;DHT22;6179;51.748;8.728;2022-08-01T06:43:16;20.20;98.30
12233;DHT22;6179;51.748;8.728;2022-08-01T06:49:19;20.30;98.30
12233;DHT22;6179;51.748;8.728;2022-08-01T06:55:19;20.60;98.30
12233;DHT22;6179;51.748;8.728;2022-08-01T07:01:20;20.70;98.30
12233;DHT22;6179;51.748;8.728;2022-08-01T07:07:21;20.60;98.30
12233;DHT22;6179;51.748;8.728;2022-08-01T07:13:21;20.60;98.30
12233;DHT22;6179;51.748;8.728;2022-08-01T07:19:25;20.60;98.30
12233;DHT22;6179;51.748;8.728;2022-08-01T07:25:26;20.60;98.30
12233;DHT22;6179;51.748;8.728;2022-08-01T07:31:26;20.70;98.30
12233;DHT22;6179;51.748;8.728;2022-08-01T07:37:27;20.80;98.30
12233;DHT22;6179;51.748;8.728;2022-08-01T07:43:28;20.70;98.30
12233;DHT22;6179;51.748;8.728;2022-08-01T07:49:29;21.00;98.30
12233;DHT22;6179;51.748;8.728;2022-08-01T07:55:30;21.40;98.30
12233;DHT22;6179;51.748;8.728;2022-08-01T08:01:31;21.30;98.30
12233;DHT22;6179;51.748;8.728;2022-08-01T08:07:31;21.50;98.30
12233;DHT22;6179;51.748;8.728;2022-08-01T08:13:32;21.50;98.30
12233;DHT22;6179;51.748;8.728;2022-08-01T08:19:33;21.30;98.30
12233;DHT22;6179;51.748;8.728;2022-08-01T08:25:34;21.20;98.30
12233;DHT22;6179;51.748;8.728;2022-08-01T08:31:36;20.90;98.30
12233;DHT22;6179;51.748;8.728;2022-08-01T08:37:38;20.80;98.30
12233;DHT22;6179;51.748;8.728;2022-08-01T08:43:39;20.70;98.30
12233;DHT22;6179;51.748;8.728;2022-08-01T08:49:43;20.60;98.30
12233;DHT22;6179;51.748;8.728;2022-08-01T08:55:44;20.90;98.30
12233;DHT22;6179;51.748;8.728;2022-08-01T09:01:46;21.00;98.30
12233;DHT22;6179;51.748;8.728;2022-08-01T09:07:46;21.20;98.30
12233;DHT22;6179;51.748;8.728;2022-08-01T09:14:10;21.80;98.30
12233;DHT22;6179;51.748;8.728;2022-08-01T09:20:22;22.20;98.30
12233;DHT22;6179;51.748;8.728;2022-08-01T09:26:35;22.00;98.30
12233;DHT22;6179;51.748;8.728;2022-08-01T09:32:37;22.20;98.30
12233;DHT22;6179;51.748;8.728;2022-08-01T09:38:37;22.40;98.30
12233;DHT22;6179;51.748;8.728;2022-08-01T09:44:40;22.80;98.30
12233;DHT22;6179;51.748;8.728;2022-08-01T09:50:46;22.70;97.90
12233;DHT22;6179;51.748;8.728;2022-08-01T09:56:47;23.00;98.10
12233;DHT22;6179;51.748;8.728;2022-08-01T10:02:47;22.90;98.00
12233;DHT22;6179;51.748;8.728;2022-08-01T10:08:48;22.90;98.20
12233;DHT22;6179;51.748;8.728;2022-08-01T10:14:50;22.90;98.10
12233;DHT22;6179;51.748;8.728;2022-08-01T10:20:53;22.00;98.30
12233;DHT22;6179;51.748;8.728;2022-08-01T10:27:02;21.50;98.30
12233;DHT22;6179;51.748;8.728;2022-08-01T10:33:04;21.30;98.30
12233;DHT22;6179;51.748;8.728;2022-08-01T10:39:06;21.20;98.30
12233;DHT22;6179;51.748;8.728;2022-08-01T10:45:15;21.10;98.30
12233;DHT22;6179;51.748;8.728;2022-08-01T10:51:16;21.30;98.30
12233;DHT22;6179;51.748;8.728;2022-08-01T10:57:17;21.40;98.30
12233;DHT22;6179;51.748;8.728;2022-08-01T11:03:32;21.90;98.30
12233;DHT22;6179;51.748;8.728;2022-08-01T11:09:45;21.90;98.30
12233;DHT22;6179;51.748;8.728;2022-08-01T11:15:47;22.10;98.30
12233;DHT22;6179;51.748;8.728;2022-08-01T11:28:18;22.30;98.30
12233;DHT22;6179;51.748;8.728;2022-08-01T11:34:53;22.00;98.30
12233;DHT22;6179;51.748;8.728;2022-08-01T11:47:11;21.30;98.30
12233;DHT22;6179;51.748;8.728;2022-08-01T11:53:12;21.10;98.30
12233;DHT22;6179;51.748;8.728;2022-08-01T11:59:16;21.30;98.30
12233;DHT22;6179;51.748;8.728;2022-08-01T12:05:17;21.50;98.30
12233;DHT22;6179;51.748;8.728;2022-08-01T12:11:20;21.60;98.30
12233;DHT22;6179;51.748;8.728;2022-08-01T12:17:43;22.00;98.30
12233;DHT22;6179;51.748;8.728;2022-08-01T12:23:44;22.20;98.30
12233;DHT22;6179;51.748;8.728;2022-08-01T12:29:44;22.50;96.50
12233;DHT22;6179;51.748;8.728;2022-08-01T12:35:46;22.60;98.30
12233;DHT22;6179;51.748;8.728;2022-08-01T12:41:47;23.00;98.00
12233;DHT22;6179;51.748;8.728;2022-08-01T12:47:50;22.70;96.50
12233;DHT22;6179;51.748;8.728;2022-08-01T12:53:51;22.60;95.80
12233;DHT22;6179;51.748;8.728;2022-08-01T12:59:53;22.80;94.90
12233;DHT22;6179;51.748;8.728;2022-08-01T13:05:56;22.50;95.70
12233;DHT22;6179;51.748;8.728;2022-08-01T13:11:57;22.30;98.30
12233;DHT22;6179;51.748;8.728;2022-08-01T13:18:30;22.00;96.90
12233;DHT22;6179;51.748;8.728;2022-08-01T13:24:31;21.90;97.80
12233;DHT22;6179;51.748;8.728;2022-08-01T13:30:32;22.40;94.40
12233;DHT22;6179;51.748;8.728;2022-08-01T13:36:36;22.20;96.40
12233;DHT22;6179;51.748;8.728;2022-08-01T13:42:37;22.20;96.40
12233;DHT22;6179;51.748;8.728;2022-08-01T13:48:38;22.80;96.40
12233;DHT22;6179;51.748;8.728;2022-08-01T13:54:39;22.60;94.10
12233;DHT22;6179;51.748;8.728;2022-08-01T14:00:40;22.40;92.40
12233;DHT22;6179;51.748;8.728;2022-08-01T14:06:41;22.70;91.40
12233;DHT22;6179;51.748;8.728;2022-08-01T14:12:41;22.80;91.80
12233;DHT22;6179;51.748;8.728;2022-08-01T14:18:42;22.60;92.50
12233;DHT22;6179;51.748;8.728;2022-08-01T14:24:43;22.40;93.70
12233;DHT22;6179;51.748;8.728;2022-08-01T14:30:44;22.70;89.50
12233;DHT22;6179;51.748;8.728;2022-08-01T14:36:44;22.90;95.00
12233;DHT22;6179;51.748;8.728;2022-08-01T14:42:45;23.00;92.90
12233;DHT22;6179;51.748;8.728;2022-08-01T14:48:46;23.30;86.70
12233;DHT22;6179;51.748;8.728;2022-08-01T14:54:46;22.90;85.50
12233;DHT22;6179;51.748;8.728;2022-08-01T15:00:47;22.70;87.30
12233;DHT22;6179;51.748;8.728;2022-08-01T15:06:48;22.90;84.30
12233;DHT22;6179;51.748;8.728;2022-08-01T15:12:49;22.90;93.50
12233;DHT22;6179;51.748;8.728;2022-08-01T15:18:49;23.30;87.00
12233;DHT22;6179;51.748;8.728;2022-08-01T15:24:51;23.50;87.50
12233;DHT22;6179;51.748;8.728;2022-08-01T15:30:52;23.50;88.00
12233;DHT22;6179;51.748;8.728;2022-08-01T15:36:52;23.80;83.20
12233;DHT22;6179;51.748;8.728;2022-08-01T15:42:53;23.80;81.10
12233;DHT22;6179;51.748;8.728;2022-08-01T15:48:54;23.90;83.60
12233;DHT22;6179;51.748;8.728;2022-08-01T15:54:54;23.30;84.80
12233;DHT22;6179;51.748;8.728;2022-08-01T16:00:55;23.80;81.30
12233;DHT22;6179;51.748;8.728;2022-08-01T16:06:56;23.80;81.40
12233;DHT22;6179;51.748;8.728;2022-08-01T16:12:56;24.00;83.10
12233;DHT22;6179;51.748;8.728;2022-08-01T16:18:57;24.10;79.00
12233;DHT22;6179;51.748;8.728;2022-08-01T16:24:58;23.90;82.70
12233;DHT22;6179;51.748;8.728;2022-08-01T16:30:58;23.60;83.00
12233;DHT22;6179;51.748;8.728;2022-08-01T16:36:59;23.70;83.10
12233;DHT22;6179;51.748;8.728;2022-08-01T16:43:00;23.80;84.00
12233;DHT22;6179;51.748;8.728;2022-08-01T16:49:00;23.90;81.50
12233;DHT22;6179;51.748;8.728;2022-08-01T16:55:01;24.00;81.30
12233;DHT22;6179;51.748;8.728;2022-08-01T17:01:02;23.90;82.50
12233;DHT22;6179;51.748;8.728;2022-08-01T17:07:03;23.90;82.30
12233;DHT22;6179;51.748;8.728;2022-08-01T17:13:04;23.40;82.70
12233;DHT22;6179;51.748;8.728;2022-08-01T17:19:05;23.10;89.10
12233;DHT22;6179;51.748;8.728;2022-08-01T17:25:06;23.10;85.10
12233;DHT22;6179;51.748;8.728;2022-08-01T17:31:07;22.90;89.30
12233;DHT22;6179;51.748;8.728;2022-08-01T17:37:08;22.90;87.10
12233;DHT22;6179;51.748;8.728;2022-08-01T17:43:09;22.90;85.50
12233;DHT22;6179;51.748;8.728;2022-08-01T17:49:09;23.00;83.50
12233;DHT22;6179;51.748;8.728;2022-08-01T17:55:10;23.10;82.10
12233;DHT22;6179;51.748;8.728;2022-08-01T18:01:12;22.70;83.70
12233;DHT22;6179;51.748;8.728;2022-08-01T18:07:13;22.70;85.30
12233;DHT22;6179;51.748;8.728;2022-08-01T18:13:14;22.20;85.40
12233;DHT22;6179;51.748;8.728;2022-08-01T18:19:17;22.40;84.80
12233;DHT22;6179;51.748;8.728;2022-08-01T18:25:20;22.00;87.20
12233;DHT22;6179;51.748;8.728;2022-08-01T18:31:22;21.90;89.20
12233;DHT22;6179;51.748;8.728;2022-08-01T18:37:27;21.80;88.20
12233;DHT22;6179;51.748;8.728;2022-08-01T18:43:27;21.70;90.10
12233;DHT22;6179;51.748;8.728;2022-08-01T18:49:28;21.50;91.30
12233;DHT22;6179;51.748;8.728;2022-08-01T18:55:29;21.30;91.30
12233;DHT22;6179;51.748;8.728;2022-08-01T19:01:30;21.10;92.40
12233;DHT22;6179;51.748;8.728;2022-08-01T19:07:31;21.00;92.70
12233;DHT22;6179;51.748;8.728;2022-08-01T19:13:32;20.80;93.30
12233;DHT22;6179;51.748;8.728;2022-08-01T19:19:33;20.60;92.90
12233;DHT22;6179;51.748;8.728;2022-08-01T19:25:35;20.40;93.80
12233;DHT22;6179;51.748;8.728;2022-08-01T19:31:39;20.50;92.40
12233;DHT22;6179;51.748;8.728;2022-08-01T19:37:41;20.30;93.80
12233;DHT22;6179;51.748;8.728;2022-08-01T19:43:47;20.00;94.70
12233;DHT22;6179;51.748;8.728;2022-08-01T19:49:49;19.80;95.70
12233;DHT22;6179;51.748;8.728;2022-08-01T19:55:50;19.60;96.70
12233;DHT22;6179;51.748;8.728;2022-08-01T20:01:51;19.40;97.40
12233;DHT22;6179;51.748;8.728;2022-08-01T20:07:53;19.20;98.00
12233;DHT22;6179;51.748;8.728;2022-08-01T20:13:55;19.20;98.30
12233;DHT22;6179;51.748;8.728;2022-08-01T20:19:56;19.10;98.30
12233;DHT22;6179;51.748;8.728;2022-08-01T20:25:57;19.20;98.30
12233;DHT22;6179;51.748;8.728;2022-08-01T20:31:59;19.20;98.30
12233;DHT22;6179;51.748;8.728;2022-08-01T20:38:01;19.10;98.30
12233;DHT22;6179;51.748;8.728;2022-08-01T20:44:02;19.10;98.30
12233;DHT22;6179;51.748;8.728;2022-08-01T20:50:03;19.20;98.30
12233;DHT22;6179;51.748;8.728;2022-08-01T21:03:11;19.50;98.00
12233;DHT22;6179;51.748;8.728;2022-08-01T21:09:20;19.00;98.30
12233;DHT22;6179;51.748;8.728;2022-08-01T21:21:32;19.10;98.30
12233;DHT22;6179;51.748;8.728;2022-08-01T21:27:36;18.70;98.30
12233;DHT22;6179;51.748;8.728;2022-08-01T21:33:39;18.60;98.30
12233;DHT22;6179;51.748;8.728;2022-08-01T21:39:45;18.70;98.30
12233;DHT22;6179;51.748;8.728;2022-08-01T21:45:50;18.60;98.30
12233;DHT22;6179;51.748;8.728;2022-08-01T22:16:06;18.00;98.30
12233;DHT22;6179;51.748;8.728;2022-08-01T22:22:09;17.80;98.30
12233;DHT22;6179;51.748;8.728;2022-08-01T22:28:14;17.80;98.30
12233;DHT22;6179;51.748;8.728;2022-08-01T22:34:16;17.90;98.30
12233;DHT22;6179;51.748;8.728;2022-08-01T22:40:18;18.10;98.30
12233;DHT22;6179;51.748;8.728;2022-08-01T22:52:48;17.40;98.30
12233;DHT22;6179;51.748;8.728;2022-08-01T22:58:51;17.20;98.30
12233;DHT22;6179;51.748;8.728;2022-08-01T23:05:03;17.10;98.30
12233;DHT22;6179;51.748;8.728;2022-08-01T23:11:05;17.10;98.30
12233;DHT22;6179;51.748;8.728;2022-08-01T23:17:07;17.00;98.30
12233;DHT22;6179;51.748;8.728;2022-08-01T23:23:08;17.00;98.30
12233;DHT22;6179;51.748;8.728;2022-08-01T23:29:09;16.60;98.30
12233;DHT22;6179;51.748;8.728;2022-08-01T23:35:11;16.50;98.30
12233;DHT22;6179;51.748;8.728;2022-08-01T23:41:11;16.50;98.30
12233;DHT22;6179;51.748;8.728;2022-08-01T23:47:15;16.60;98.30
12233;DHT22;6179;51.748;8.728;2022-08-01T23:53:16;16.60;98.30
12233;DHT22;6179;51.748;8.728;2022-08-01T23:59:16;16.50;98.30
